createdAt,value
2018-12-25T00:01:52.955Z,0.90
2018-12-25T00:04:22.300Z,1.00
2018-12-25T00:06:51.607Z,1.00
2018-12-25T00:09:20.967Z,1.10
2018-12-25T00:11:50.354Z,1.10
2018-12-25T00:14:19.750Z,1.10
2018-12-25T00:16:49.064Z,1.10
2018-12-25T00:19:18.417Z,1.00
2018-12-25T00:21:47.850Z,1.00
2018-12-25T00:24:17.153Z,1.10
2018-12-25T00:26:46.484Z,1.10
2018-12-25T00:29:15.795Z,1.10
2018-12-25T00:31:45.431Z,1.30
2018-12-25T00:34:14.726Z,1.20
2018-12-25T00:36:44.029Z,1.20
2018-12-25T00:39:13.600Z,1.20
2018-12-25T00:41:42.912Z,1.30
2018-12-25T00:44:12.245Z,1.30
2018-12-25T00:46:41.888Z,1.30
2018-12-25T00:49:14.938Z,1.20
2018-12-25T00:51:42.267Z,1.20
2018-12-25T00:54:11.580Z,1.30
2018-12-25T00:56:40.883Z,1.30
2018-12-25T00:59:10.221Z,1.40
2018-12-25T01:01:39.572Z,1.40
2018-12-25T01:04:08.890Z,1.40
2018-12-25T01:06:38.185Z,1.40
2018-12-25T01:09:07.944Z,1.40
2018-12-25T01:11:37.284Z,1.40
2018-12-25T01:14:06.602Z,1.40
2018-12-25T01:16:35.878Z,1.40
2018-12-25T01:19:05.248Z,1.40
2018-12-25T01:21:34.629Z,1.40
2018-12-25T01:24:03.945Z,1.50
2018-12-25T01:26:33.242Z,1.50
2018-12-25T01:29:02.586Z,1.40
2018-12-25T01:31:31.868Z,1.50
2018-12-25T01:34:01.192Z,1.50
2018-12-25T01:36:30.509Z,1.50
2018-12-25T01:38:59.818Z,1.50
2018-12-25T01:41:29.196Z,1.60
2018-12-25T01:43:58.499Z,1.50
2018-12-25T01:46:28.225Z,1.60
2018-12-25T01:48:57.547Z,1.60
2018-12-25T01:51:26.961Z,1.50
2018-12-25T01:53:56.705Z,1.60
2018-12-25T01:56:26.035Z,1.60
2018-12-25T01:58:55.456Z,1.60
2018-12-25T02:01:24.780Z,1.60
2018-12-25T02:03:54.063Z,1.60
2018-12-25T02:06:23.427Z,1.60
2018-12-25T02:08:52.744Z,1.60
2018-12-25T02:11:22.053Z,1.60
2018-12-25T02:13:51.335Z,1.70
2018-12-25T02:16:20.713Z,1.70
2018-12-25T02:18:50.064Z,1.70
2018-12-25T02:21:19.392Z,1.70
2018-12-25T02:23:49.053Z,1.70
2018-12-25T02:26:18.448Z,1.80
2018-12-25T02:28:47.754Z,1.80
2018-12-25T02:31:17.225Z,1.80
2018-12-25T02:33:46.540Z,1.80
2018-12-25T02:36:15.841Z,1.80
2018-12-25T02:38:45.150Z,1.70
2018-12-25T02:41:14.471Z,1.80
2018-12-25T02:43:43.782Z,1.80
2018-12-25T02:46:13.121Z,1.80
2018-12-25T02:48:42.433Z,1.80
2018-12-25T02:51:11.805Z,1.70
2018-12-25T02:53:41.133Z,1.80
2018-12-25T02:56:10.523Z,1.80
2018-12-25T02:58:39.836Z,1.80
2018-12-25T03:01:09.331Z,1.70
2018-12-25T03:03:38.687Z,1.80
2018-12-25T03:06:08.004Z,1.80
2018-12-25T03:08:37.373Z,1.80
2018-12-25T03:11:06.686Z,1.70
2018-12-25T03:13:36.010Z,1.70
2018-12-25T03:16:05.337Z,1.70
2018-12-25T03:18:34.664Z,1.80
2018-12-25T03:21:03.960Z,1.80
2018-12-25T03:23:33.266Z,1.90
2018-12-25T03:26:02.929Z,1.90
2018-12-25T03:28:32.298Z,1.80
2018-12-25T03:31:01.896Z,1.80
2018-12-25T03:33:31.371Z,1.90
2018-12-25T03:36:00.671Z,1.90
2018-12-25T03:38:30.011Z,1.90
2018-12-25T03:40:59.541Z,1.90
2018-12-25T03:43:28.878Z,2.00
2018-12-25T03:45:58.200Z,2.10
2018-12-25T03:48:27.520Z,2.00
2018-12-25T03:50:56.949Z,1.90
2018-12-25T03:53:26.435Z,1.90
2018-12-25T03:55:55.794Z,2.00
2018-12-25T03:58:25.138Z,2.00
2018-12-25T04:00:54.440Z,2.10
2018-12-25T04:03:23.769Z,2.10
2018-12-25T04:05:53.442Z,2.10
2018-12-25T04:08:23.136Z,2.10
2018-12-25T04:10:52.461Z,2.10
2018-12-25T04:13:21.763Z,2.10
2018-12-25T04:15:51.079Z,2.20
2018-12-25T04:18:20.367Z,2.30
2018-12-25T04:20:49.730Z,2.30
2018-12-25T04:23:19.053Z,2.40
2018-12-25T04:25:48.664Z,2.50
2018-12-25T04:28:18.033Z,2.50
2018-12-25T04:30:47.305Z,2.40
2018-12-25T04:33:16.654Z,2.40
2018-12-25T04:35:45.976Z,2.30
2018-12-25T04:38:15.570Z,2.20
2018-12-25T04:40:44.894Z,2.20
2018-12-25T04:43:14.260Z,2.10
2018-12-25T04:45:43.717Z,2.10
2018-12-25T04:48:13.713Z,2.10
2018-12-25T04:50:43.071Z,2.10
2018-12-25T04:53:12.437Z,2.20
2018-12-25T04:55:41.796Z,2.20
2018-12-25T04:58:11.215Z,2.20
2018-12-25T05:00:40.539Z,2.20
2018-12-25T05:03:09.854Z,2.20
2018-12-25T05:05:39.163Z,2.40
2018-12-25T05:08:08.645Z,2.40
2018-12-25T05:10:38.008Z,2.40
2018-12-25T05:13:07.320Z,2.40
2018-12-25T05:15:36.635Z,2.40
2018-12-25T05:18:06.001Z,2.50
2018-12-25T05:20:37.990Z,2.50
2018-12-25T05:23:06.452Z,2.40
2018-12-25T05:25:35.788Z,2.40
2018-12-25T05:28:05.099Z,2.50
2018-12-25T05:30:34.424Z,2.60
2018-12-25T05:33:03.712Z,2.50
2018-12-25T05:35:33.045Z,2.60
2018-12-25T05:38:02.383Z,2.60
2018-12-25T05:40:31.696Z,2.60
2018-12-25T05:43:01.040Z,2.70
2018-12-25T05:45:30.358Z,2.60
2018-12-25T05:47:59.674Z,2.70
2018-12-25T05:50:28.977Z,2.80
2018-12-25T05:52:58.319Z,2.80
2018-12-25T05:55:27.692Z,2.80
2018-12-25T05:57:57.298Z,2.80
2018-12-25T06:00:26.645Z,2.80
2018-12-25T06:02:55.949Z,2.80
2018-12-25T06:05:25.281Z,2.80
2018-12-25T06:07:54.599Z,2.80
2018-12-25T06:10:23.925Z,2.90
2018-12-25T06:12:53.321Z,2.90
2018-12-25T06:15:22.623Z,2.90
2018-12-25T06:17:51.973Z,3.10
2018-12-25T06:20:21.320Z,3.10
2018-12-25T06:22:50.613Z,3.10
2018-12-25T06:25:19.902Z,3.00
2018-12-25T06:27:49.624Z,2.90
2018-12-25T06:30:18.896Z,2.90
2018-12-25T06:32:48.225Z,2.80
2018-12-25T06:35:17.554Z,2.80
2018-12-25T06:37:46.968Z,2.80
2018-12-25T06:40:16.265Z,2.80
2018-12-25T06:42:45.610Z,2.80
2018-12-25T06:45:14.908Z,2.80
2018-12-25T06:47:44.208Z,2.80
2018-12-25T06:50:13.506Z,2.90
2018-12-25T06:52:42.811Z,2.80
2018-12-25T06:55:12.173Z,2.80
2018-12-25T06:57:41.587Z,2.90
2018-12-25T07:00:10.906Z,2.90
2018-12-25T07:02:40.226Z,2.90
2018-12-25T07:05:09.539Z,2.80
2018-12-25T07:07:38.835Z,2.80
2018-12-25T07:10:08.168Z,2.80
2018-12-25T07:12:37.544Z,2.80
2018-12-25T07:15:06.952Z,2.80
2018-12-25T07:17:36.240Z,2.80
2018-12-25T07:20:05.614Z,2.80
2018-12-25T07:22:35.002Z,2.80
2018-12-25T07:25:04.479Z,2.70
2018-12-25T07:27:33.829Z,2.70
2018-12-25T07:30:06.553Z,2.70
2018-12-25T07:32:35.821Z,2.70
2018-12-25T07:35:05.195Z,2.80
2018-12-25T07:37:34.915Z,2.70
2018-12-25T07:40:04.549Z,2.80
2018-12-25T07:42:33.831Z,2.80
2018-12-25T07:45:03.170Z,3.00
2018-12-25T07:47:32.524Z,2.90
2018-12-25T07:50:01.921Z,2.80
2018-12-25T07:52:31.319Z,2.90
2018-12-25T07:55:00.606Z,2.80
2018-12-25T07:57:29.953Z,2.80
2018-12-25T07:59:59.696Z,2.80
2018-12-25T08:02:28.988Z,2.80
2018-12-25T08:04:58.723Z,2.80
2018-12-25T08:07:28.119Z,2.80
2018-12-25T08:09:57.483Z,2.90
2018-12-25T08:12:26.818Z,2.90
2018-12-25T08:14:56.135Z,2.90
2018-12-25T08:17:25.435Z,2.90
2018-12-25T08:19:54.720Z,2.90
2018-12-25T08:22:24.120Z,2.90
2018-12-25T08:24:53.425Z,3.00
2018-12-25T08:27:22.760Z,3.00
2018-12-25T08:29:52.317Z,3.00
2018-12-25T08:32:21.647Z,3.10
2018-12-25T08:34:51.327Z,3.10
2018-12-25T08:37:20.609Z,3.10
2018-12-25T08:39:49.903Z,3.10
2018-12-25T08:42:19.215Z,3.10
2018-12-25T08:44:48.538Z,3.10
2018-12-25T08:47:18.169Z,3.20
2018-12-25T08:49:47.854Z,3.20
2018-12-25T08:52:17.259Z,3.20
2018-12-25T08:54:46.593Z,3.30
2018-12-25T08:57:16.021Z,3.30
2018-12-25T08:59:45.365Z,3.30
2018-12-25T09:02:14.779Z,3.40
2018-12-25T09:04:44.092Z,3.40
2018-12-25T09:07:13.392Z,3.40
2018-12-25T09:09:42.723Z,3.50
2018-12-25T09:12:12.087Z,3.50
2018-12-25T09:14:41.466Z,3.60
2018-12-25T09:17:10.764Z,3.60
2018-12-25T09:19:40.100Z,3.70
2018-12-25T09:22:09.460Z,3.70
2018-12-25T09:24:38.810Z,3.70
2018-12-25T09:27:08.250Z,3.70
2018-12-25T09:29:37.572Z,3.70
2018-12-25T09:32:06.939Z,3.70
2018-12-25T09:34:36.312Z,3.80
2018-12-25T09:37:05.621Z,3.80
2018-12-25T09:39:34.962Z,3.80
2018-12-25T09:42:04.259Z,3.80
2018-12-25T09:44:33.953Z,3.90
2018-12-25T09:47:03.301Z,3.90
2018-12-25T09:49:34.339Z,4.10
2018-12-25T09:52:04.627Z,4.20
2018-12-25T09:54:33.908Z,4.30
2018-12-25T09:57:03.294Z,4.40
2018-12-25T09:59:32.969Z,4.50
2018-12-25T10:02:02.464Z,4.60
2018-12-25T10:04:31.827Z,4.70
2018-12-25T10:07:01.225Z,4.80
2018-12-25T10:09:30.950Z,4.90
2018-12-25T10:12:00.245Z,4.90
2018-12-25T10:14:29.653Z,5.00
2018-12-25T10:16:59.165Z,5.00
2018-12-25T10:19:28.466Z,5.10
2018-12-25T10:22:02.918Z,5.00
2018-12-25T10:24:29.134Z,5.00
2018-12-25T10:26:58.508Z,5.00
2018-12-25T10:29:27.831Z,5.10
2018-12-25T10:31:57.140Z,5.10
2018-12-25T10:34:26.574Z,5.10
2018-12-25T10:36:56.012Z,5.20
2018-12-25T10:39:26.248Z,5.20
2018-12-25T10:41:55.686Z,5.20
2018-12-25T10:44:25.000Z,5.20
2018-12-25T10:46:54.351Z,5.30
2018-12-25T10:49:23.660Z,5.20
2018-12-25T10:51:53.400Z,5.20
2018-12-25T10:54:22.725Z,5.20
2018-12-25T10:56:52.041Z,5.20
2018-12-25T10:59:21.339Z,5.10
2018-12-25T11:01:50.926Z,5.00
2018-12-25T11:04:20.652Z,5.00
2018-12-25T11:06:50.049Z,5.10
2018-12-25T11:09:19.475Z,5.10
2018-12-25T11:11:48.816Z,5.10
2018-12-25T11:14:19.282Z,5.00
2018-12-25T11:16:49.326Z,5.00
2018-12-25T11:19:18.723Z,5.00
2018-12-25T11:21:48.030Z,5.10
2018-12-25T11:24:17.361Z,5.00
2018-12-25T11:26:46.684Z,5.10
2018-12-25T11:29:16.065Z,5.10
2018-12-25T11:31:45.406Z,5.10
2018-12-25T11:34:15.113Z,5.30
2018-12-25T11:36:44.461Z,5.20
2018-12-25T11:39:13.817Z,5.30
2018-12-25T11:41:43.221Z,5.20
2018-12-25T11:44:12.516Z,5.20
2018-12-25T11:46:42.232Z,5.20
2018-12-25T11:49:11.656Z,5.20
2018-12-25T11:51:41.435Z,5.20
2018-12-25T11:54:10.776Z,5.20
2018-12-25T11:56:40.095Z,5.20
2018-12-25T11:59:09.620Z,5.20
2018-12-25T12:01:39.324Z,5.20
2018-12-25T12:04:08.945Z,5.30
2018-12-25T12:06:38.285Z,5.30
2018-12-25T12:44:11.379Z,5.50
2018-12-25T12:58:10.049Z,5.50
2018-12-25T13:00:39.733Z,5.50
2018-12-25T13:03:09.037Z,5.60
2018-12-25T13:05:38.343Z,5.60
2018-12-25T13:08:07.652Z,5.70
2018-12-25T13:10:36.980Z,5.70
2018-12-25T13:13:06.408Z,5.70
2018-12-25T13:15:36.076Z,5.60
2018-12-25T13:18:05.393Z,5.60
2018-12-25T13:20:34.800Z,5.50
2018-12-25T13:23:04.101Z,5.60
2018-12-25T13:25:33.507Z,5.50
2018-12-25T13:28:02.885Z,5.40
2018-12-25T13:30:32.189Z,5.50
2018-12-25T13:33:01.561Z,5.40
2018-12-25T13:35:30.877Z,5.40
2018-12-25T13:38:00.156Z,5.50
2018-12-25T13:40:29.821Z,5.50
2018-12-25T13:42:59.156Z,5.50
2018-12-25T13:45:28.554Z,5.60
2018-12-25T13:47:57.865Z,5.60
2018-12-25T13:50:27.235Z,5.50
2018-12-25T13:53:02.768Z,5.50
2018-12-25T13:55:28.044Z,5.40
2018-12-25T13:57:57.729Z,5.50
2018-12-25T14:00:27.097Z,5.50
2018-12-25T14:02:56.763Z,5.50
2018-12-25T14:05:26.140Z,5.40
2018-12-25T14:07:55.508Z,5.50
2018-12-25T14:10:24.892Z,5.60
2018-12-25T14:12:54.213Z,5.50
2018-12-25T14:15:24.686Z,5.50
2018-12-25T14:17:54.045Z,5.50
2018-12-25T14:20:23.432Z,5.50
2018-12-25T14:22:52.810Z,5.50
2018-12-25T14:25:22.212Z,5.40
2018-12-25T14:27:51.524Z,5.30
2018-12-25T14:30:20.798Z,5.20
2018-12-25T14:32:50.105Z,5.00
2018-12-25T14:35:19.408Z,5.00
2018-12-25T14:37:48.736Z,5.00
2018-12-25T14:40:18.023Z,4.90
2018-12-25T14:42:47.387Z,4.80
2018-12-25T14:45:16.765Z,4.90
2018-12-25T14:47:46.077Z,4.90
2018-12-25T14:50:15.388Z,4.80
2018-12-25T14:52:44.688Z,4.70
2018-12-25T14:55:13.989Z,4.70
2018-12-25T14:57:43.357Z,4.60
2018-12-25T15:00:12.687Z,4.60
2018-12-25T15:02:41.993Z,4.50
2018-12-25T15:05:11.315Z,4.50
2018-12-25T15:07:40.614Z,4.50
2018-12-25T15:10:09.940Z,4.40
2018-12-25T15:12:39.649Z,4.40
2018-12-25T15:15:08.956Z,4.40
2018-12-25T15:17:38.267Z,4.30
2018-12-25T15:20:07.738Z,4.30
2018-12-25T15:22:37.166Z,4.30
2018-12-25T15:25:06.814Z,4.20
2018-12-25T15:27:36.171Z,4.20
2018-12-25T15:30:05.853Z,4.10
2018-12-25T15:32:35.160Z,4.10
2018-12-25T15:35:07.826Z,4.00
2018-12-25T15:37:37.152Z,3.90
2018-12-25T15:40:08.096Z,3.90
2018-12-25T15:42:37.414Z,3.80
2018-12-25T15:45:08.296Z,3.80
2018-12-25T15:47:37.713Z,3.70
2018-12-25T15:50:07.937Z,3.70
2018-12-25T15:52:37.250Z,3.60
2018-12-25T15:55:08.016Z,3.60
2018-12-25T15:57:37.332Z,3.50
2018-12-25T16:00:11.002Z,3.50
2018-12-25T16:02:40.596Z,3.40
2018-12-25T16:05:10.216Z,3.30
2018-12-25T16:07:39.511Z,3.30
2018-12-25T16:10:08.856Z,3.20
2018-12-25T16:12:38.169Z,3.10
2018-12-25T16:15:07.579Z,3.00
2018-12-25T16:17:36.981Z,2.90
2018-12-25T16:20:09.451Z,2.90
2018-12-25T16:22:38.795Z,2.90
2018-12-25T16:25:08.176Z,2.90
2018-12-25T16:27:38.373Z,2.80
2018-12-25T16:30:09.432Z,2.70
2018-12-25T16:32:38.789Z,2.70
2018-12-25T16:35:08.388Z,2.70
2018-12-25T16:37:37.714Z,2.70
2018-12-25T16:40:08.678Z,2.70
2018-12-25T16:42:38.069Z,2.70
2018-12-25T16:45:07.633Z,2.60
2018-12-25T16:47:36.966Z,2.60
2018-12-25T16:50:06.265Z,2.50
2018-12-25T16:52:35.603Z,2.40
2018-12-25T16:55:05.385Z,2.40
2018-12-25T16:57:34.816Z,2.30
2018-12-25T17:00:04.531Z,2.30
2018-12-25T17:02:33.884Z,2.30
2018-12-25T17:05:03.258Z,2.30
2018-12-25T17:07:32.652Z,2.20
2018-12-25T17:10:01.969Z,2.10
2018-12-25T17:12:31.307Z,2.10
2018-12-25T17:15:00.635Z,2.10
2018-12-25T17:17:29.936Z,2.10
2018-12-25T17:19:59.275Z,2.10
2018-12-25T17:22:28.629Z,2.10
2018-12-25T17:24:59.699Z,2.00
2018-12-25T17:27:29.240Z,2.00
2018-12-25T17:29:58.579Z,2.00
2018-12-25T17:32:27.890Z,1.90
2018-12-25T17:34:57.216Z,1.90
2018-12-25T17:37:26.669Z,1.90
2018-12-25T17:39:55.962Z,1.70
2018-12-25T17:42:25.272Z,1.50
2018-12-25T17:44:54.560Z,1.40
2018-12-25T17:47:23.887Z,1.50
2018-12-25T17:49:53.185Z,1.60
2018-12-25T17:52:22.563Z,1.50
2018-12-25T17:54:51.865Z,1.50
2018-12-25T17:57:21.214Z,1.50
2018-12-25T17:59:50.578Z,1.50
2018-12-25T18:02:19.880Z,1.50
2018-12-25T18:04:49.626Z,1.40
2018-12-25T18:07:18.995Z,1.40
2018-12-25T18:09:48.363Z,1.40
2018-12-25T18:12:18.157Z,1.20
2018-12-25T18:14:47.479Z,1.20
2018-12-25T18:17:19.005Z,1.10
2018-12-25T18:19:47.939Z,1.00
2018-12-25T18:22:17.260Z,1.00
2018-12-25T18:24:46.680Z,1.00
2018-12-25T18:27:15.965Z,1.00
2018-12-25T18:29:45.288Z,1.00
2018-12-25T18:32:14.570Z,1.00
2018-12-25T18:34:43.900Z,1.00
2018-12-25T18:37:13.356Z,1.00
2018-12-25T18:39:54.215Z,1.00
2018-12-25T18:42:23.610Z,0.90
2018-12-25T18:44:52.952Z,0.90
2018-12-25T18:47:22.326Z,0.90
2018-12-25T18:49:51.661Z,0.90
2018-12-25T18:52:20.955Z,0.90
2018-12-25T18:54:50.285Z,0.80
2018-12-25T18:57:19.673Z,0.80
2018-12-25T18:59:49.013Z,0.80
2018-12-25T19:02:18.413Z,0.70
2018-12-25T19:04:47.754Z,0.80
2018-12-25T19:07:17.098Z,0.70
2018-12-25T19:09:46.484Z,0.70
2018-12-25T19:12:16.080Z,0.60
2018-12-25T19:14:59.145Z,0.50
2018-12-25T19:17:28.555Z,0.50
2018-12-25T19:19:57.844Z,0.50
2018-12-25T19:22:27.200Z,0.40
2018-12-25T19:24:56.539Z,0.40
2018-12-25T19:27:25.853Z,0.40
2018-12-25T19:29:55.235Z,0.40
2018-12-25T19:32:24.867Z,0.40
2018-12-25T19:34:54.460Z,0.50
2018-12-25T19:37:23.814Z,0.50
2018-12-25T19:39:53.193Z,0.50
2018-12-25T19:42:22.536Z,0.40
2018-12-25T19:44:51.942Z,0.40
2018-12-25T19:47:21.252Z,0.40
2018-12-25T19:49:50.913Z,0.40
2018-12-25T19:52:20.658Z,0.40
2018-12-25T19:54:50.399Z,0.40
2018-12-25T19:57:19.833Z,0.40
2018-12-25T19:59:49.231Z,0.30
2018-12-25T20:02:19.048Z,0.20
2018-12-25T20:05:02.991Z,0.20
2018-12-25T20:08:25.287Z,0.20
2018-12-25T20:11:51.133Z,0.10
2018-12-25T20:14:51.644Z,0.10
2018-12-25T20:17:56.992Z,0.10
2018-12-25T20:20:48.730Z,0.10
2018-12-25T20:24:00.030Z,0.10
2018-12-25T20:27:20.544Z,0.10
2018-12-25T20:30:45.134Z,0.00
2018-12-25T20:33:51.034Z,0.00
2018-12-25T20:36:58.582Z,0.00
2018-12-25T20:40:07.733Z,0.00
2018-12-25T20:43:22.345Z,0.00
2018-12-25T20:46:34.792Z,-0.10
2018-12-25T20:49:47.399Z,-0.10
2018-12-25T20:52:50.538Z,-0.10
2018-12-25T20:55:56.828Z,-0.20
2018-12-25T20:59:09.876Z,-0.20
2018-12-25T21:02:15.565Z,-0.20
2018-12-25T21:05:23.173Z,-0.20
2018-12-25T21:08:28.146Z,-0.20
2018-12-25T21:11:41.710Z,-0.20
2018-12-25T21:15:03.575Z,-0.20
2018-12-25T21:18:23.021Z,-0.20
2018-12-25T21:21:38.288Z,-0.10
2018-12-25T21:24:43.470Z,-0.20
2018-12-25T21:27:29.867Z,-0.20
2018-12-25T21:30:01.265Z,-0.20
2018-12-25T21:32:32.409Z,-0.30
2018-12-25T21:35:10.822Z,-0.30
2018-12-25T21:37:40.721Z,-0.30
2018-12-25T21:40:10.416Z,-0.30
2018-12-25T21:42:39.779Z,-0.40
2018-12-25T21:45:09.462Z,-0.40
2018-12-25T21:47:41.263Z,-0.40
2018-12-25T21:50:11.620Z,-0.40
2018-12-25T21:52:41.150Z,-0.50
2018-12-25T21:55:18.581Z,-0.50
2018-12-25T21:57:42.832Z,-0.50
2018-12-25T22:00:16.442Z,-0.60
2018-12-25T22:02:45.943Z,-0.60
2018-12-25T22:05:15.373Z,-0.60
2018-12-25T22:07:44.807Z,-0.60
2018-12-25T22:10:14.495Z,-0.60
2018-12-25T22:12:44.044Z,-0.60
2018-12-25T22:15:13.868Z,-0.60
2018-12-25T22:17:43.661Z,-0.60
2018-12-25T22:20:28.887Z,-0.60
2018-12-25T22:22:58.292Z,-0.60
2018-12-25T22:25:27.743Z,-0.60
2018-12-25T22:27:57.433Z,-0.60
2018-12-25T22:30:27.045Z,-0.70
2018-12-25T22:32:56.381Z,-0.70
2018-12-25T22:35:26.062Z,-0.80
2018-12-25T22:37:55.857Z,-0.80
2018-12-25T22:40:25.493Z,-0.80
2018-12-25T22:42:54.973Z,-0.80
2018-12-25T22:45:24.365Z,-0.90
2018-12-25T22:47:53.714Z,-0.80
2018-12-25T22:50:23.049Z,-0.80
2018-12-25T22:52:52.493Z,-0.80
2018-12-25T22:55:22.781Z,-0.80
2018-12-25T22:57:52.147Z,-0.80
2018-12-25T23:00:21.809Z,-0.80
2018-12-25T23:02:51.160Z,-0.80
2018-12-25T23:05:20.546Z,-0.70
2018-12-25T23:07:49.920Z,-0.80
2018-12-25T23:10:19.365Z,-0.80
2018-12-25T23:12:48.689Z,-0.90
2018-12-25T23:15:18.061Z,-0.90
2018-12-25T23:17:47.392Z,-0.90
2018-12-25T23:20:16.683Z,-0.90
2018-12-25T23:22:46.276Z,-1.00
2018-12-25T23:25:15.670Z,-1.00
2018-12-25T23:27:45.142Z,-1.00
2018-12-25T23:30:14.502Z,-1.00
2018-12-25T23:32:43.846Z,-1.00
2018-12-25T23:35:13.189Z,-1.00
2018-12-25T23:37:42.583Z,-1.00
2018-12-25T23:40:12.098Z,-1.10
2018-12-25T23:42:41.924Z,-1.10
2018-12-25T23:45:11.304Z,-1.10
2018-12-25T23:47:40.628Z,-1.10
2018-12-25T23:50:10.186Z,-1.20
2018-12-25T23:52:39.533Z,-1.20
2018-12-25T23:55:08.967Z,-1.20
2018-12-25T23:57:38.343Z,-1.10
